sensor_id;sensor_type;location;lat;lon;timestamp;P1;durP1;ratioP1;P2;durP2;ratioP2
66371;SDS011;53168;51.146;17.120;2023-07-20T00:02:28;3.78;;;3.78;;
66371;SDS011;53168;51.146;17.120;2023-07-20T00:04:59;3.51;;;3.51;;
66371;SDS011;53168;51.146;17.120;2023-07-20T00:07:28;3.37;;;3.37;;
66371;SDS011;53168;51.146;17.120;2023-07-20T00:09:58;3.29;;;3.29;;
66371;SDS011;53168;51.146;17.120;2023-07-20T00:12:28;3.38;;;3.38;;
66371;SDS011;53168;51.146;17.120;2023-07-20T00:14:58;3.11;;;3.11;;
66371;SDS011;53168;51.146;17.120;2023-07-20T00:17:28;2.93;;;2.93;;
66371;SDS011;53168;51.146;17.120;2023-07-20T00:19:58;2.80;;;2.80;;
66371;SDS011;53168;51.146;17.120;2023-07-20T00:22:28;3.27;;;3.27;;
66371;SDS011;53168;51.146;17.120;2023-07-20T00:25:01;2.69;;;2.69;;
66371;SDS011;53168;51.146;17.120;2023-07-20T00:27:32;2.82;;;2.82;;
66371;SDS011;53168;51.146;17.120;2023-07-20T00:30:02;2.90;;;2.90;;
66371;SDS011;53168;51.146;17.120;2023-07-20T00:32:33;3.20;;;3.20;;
66371;SDS011;53168;51.146;17.120;2023-07-20T00:35:04;3.00;;;3.00;;
66371;SDS011;53168;51.146;17.120;2023-07-20T00:37:35;3.55;;;3.55;;
66371;SDS011;53168;51.146;17.120;2023-07-20T00:40:06;3.56;;;3.56;;
66371;SDS011;53168;51.146;17.120;2023-07-20T00:42:37;4.12;;;4.12;;
66371;SDS011;53168;51.146;17.120;2023-07-20T00:45:08;3.93;;;3.93;;
66371;SDS011;53168;51.146;17.120;2023-07-20T00:47:39;3.78;;;3.78;;
66371;SDS011;53168;51.146;17.120;2023-07-20T00:50:10;3.45;;;3.45;;
66371;SDS011;53168;51.146;17.120;2023-07-20T00:52:40;3.13;;;3.13;;
66371;SDS011;53168;51.146;17.120;2023-07-20T00:55:12;3.55;;;3.55;;
66371;SDS011;53168;51.146;17.120;2023-07-20T00:57:42;3.62;;;3.62;;
66371;SDS011;53168;51.146;17.120;2023-07-20T01:00:13;3.23;;;3.23;;
66371;SDS011;53168;51.146;17.120;2023-07-20T01:05:47;3.71;;;3.71;;
66371;SDS011;53168;51.146;17.120;2023-07-20T01:08:30;3.64;;;3.64;;
66371;SDS011;53168;51.146;17.120;2023-07-20T01:11:16;3.75;;;3.75;;
66371;SDS011;53168;51.146;17.120;2023-07-20T01:13:56;3.79;;;3.79;;
66371;SDS011;53168;51.146;17.120;2023-07-20T01:16:28;3.88;;;3.88;;
66371;SDS011;53168;51.146;17.120;2023-07-20T01:19:01;3.88;;;3.88;;
66371;SDS011;53168;51.146;17.120;2023-07-20T01:21:55;3.75;;;3.75;;
66371;SDS011;53168;51.146;17.120;2023-07-20T01:25:07;3.69;;;3.69;;
66371;SDS011;53168;51.146;17.120;2023-07-20T01:28:00;3.54;;;3.54;;
66371;SDS011;53168;51.146;17.120;2023-07-20T01:34:00;4.00;;;4.00;;
66371;SDS011;53168;51.146;17.120;2023-07-20T01:36:35;3.69;;;3.69;;
66371;SDS011;53168;51.146;17.120;2023-07-20T01:39:08;3.49;;;3.49;;
66371;SDS011;53168;51.146;17.120;2023-07-20T01:41:39;4.20;;;4.20;;
66371;SDS011;53168;51.146;17.120;2023-07-20T01:44:10;3.89;;;3.89;;
66371;SDS011;53168;51.146;17.120;2023-07-20T01:46:47;3.59;;;3.59;;
66371;SDS011;53168;51.146;17.120;2023-07-20T01:49:18;3.77;;;3.77;;
66371;SDS011;53168;51.146;17.120;2023-07-20T01:51:47;4.10;;;4.10;;
66371;SDS011;53168;51.146;17.120;2023-07-20T01:54:17;4.03;;;4.03;;
66371;SDS011;53168;51.146;17.120;2023-07-20T01:56:48;4.11;;;4.11;;
66371;SDS011;53168;51.146;17.120;2023-07-20T01:59:19;4.49;;;4.49;;
66371;SDS011;53168;51.146;17.120;2023-07-20T02:01:48;4.01;;;4.01;;
66371;SDS011;53168;51.146;17.120;2023-07-20T02:04:18;3.99;;;3.99;;
66371;SDS011;53168;51.146;17.120;2023-07-20T02:09:25;4.19;;;4.19;;
66371;SDS011;53168;51.146;17.120;2023-07-20T02:11:55;4.07;;;4.07;;
66371;SDS011;53168;51.146;17.120;2023-07-20T02:14:25;4.39;;;4.39;;
66371;SDS011;53168;51.146;17.120;2023-07-20T02:16:56;4.71;;;4.71;;
66371;SDS011;53168;51.146;17.120;2023-07-20T02:19:28;4.23;;;4.23;;
66371;SDS011;53168;51.146;17.120;2023-07-20T02:21:58;4.54;;;4.54;;
66371;SDS011;53168;51.146;17.120;2023-07-20T02:24:28;4.23;;;4.23;;
66371;SDS011;53168;51.146;17.120;2023-07-20T02:26:58;4.29;;;4.29;;
66371;SDS011;53168;51.146;17.120;2023-07-20T02:29:27;4.43;;;4.43;;
66371;SDS011;53168;51.146;17.120;2023-07-20T02:31:58;4.45;;;4.45;;
66371;SDS011;53168;51.146;17.120;2023-07-20T02:34:29;4.46;;;4.46;;
66371;SDS011;53168;51.146;17.120;2023-07-20T02:36:59;4.58;;;4.58;;
66371;SDS011;53168;51.146;17.120;2023-07-20T02:39:29;4.56;;;4.56;;
66371;SDS011;53168;51.146;17.120;2023-07-20T02:41:59;4.60;;;4.60;;
66371;SDS011;53168;51.146;17.120;2023-07-20T02:44:29;4.26;;;4.26;;
66371;SDS011;53168;51.146;17.120;2023-07-20T02:46:59;4.20;;;4.20;;
66371;SDS011;53168;51.146;17.120;2023-07-20T02:49:29;3.71;;;3.71;;
66371;SDS011;53168;51.146;17.120;2023-07-20T02:51:59;4.22;;;4.22;;
66371;SDS011;53168;51.146;17.120;2023-07-20T02:54:29;4.24;;;4.24;;
66371;SDS011;53168;51.146;17.120;2023-07-20T02:56:58;4.26;;;4.26;;
66371;SDS011;53168;51.146;17.120;2023-07-20T02:59:28;4.15;;;4.15;;
66371;SDS011;53168;51.146;17.120;2023-07-20T03:01:58;3.98;;;3.98;;
66371;SDS011;53168;51.146;17.120;2023-07-20T03:04:28;4.01;;;4.00;;
66371;SDS011;53168;51.146;17.120;2023-07-20T03:06:58;4.21;;;4.20;;
66371;SDS011;53168;51.146;17.120;2023-07-20T03:09:27;4.17;;;4.17;;
66371;SDS011;53168;51.146;17.120;2023-07-20T03:11:57;3.96;;;3.96;;
66371;SDS011;53168;51.146;17.120;2023-07-20T03:14:27;3.63;;;3.63;;
66371;SDS011;53168;51.146;17.120;2023-07-20T03:16:56;4.04;;;4.04;;
66371;SDS011;53168;51.146;17.120;2023-07-20T03:19:26;3.97;;;3.97;;
66371;SDS011;53168;51.146;17.120;2023-07-20T03:21:56;3.81;;;3.81;;
66371;SDS011;53168;51.146;17.120;2023-07-20T03:24:26;3.85;;;3.85;;
66371;SDS011;53168;51.146;17.120;2023-07-20T03:26:56;3.90;;;3.90;;
66371;SDS011;53168;51.146;17.120;2023-07-20T03:29:28;3.76;;;3.76;;
66371;SDS011;53168;51.146;17.120;2023-07-20T03:32:00;4.17;;;4.17;;
66371;SDS011;53168;51.146;17.120;2023-07-20T03:34:30;3.42;;;3.42;;
66371;SDS011;53168;51.146;17.120;2023-07-20T03:37:00;3.73;;;3.73;;
66371;SDS011;53168;51.146;17.120;2023-07-20T03:39:33;3.81;;;3.81;;
66371;SDS011;53168;51.146;17.120;2023-07-20T03:42:05;3.67;;;3.67;;
66371;SDS011;53168;51.146;17.120;2023-07-20T03:44:43;3.63;;;3.63;;
66371;SDS011;53168;51.146;17.120;2023-07-20T03:47:13;4.25;;;4.25;;
66371;SDS011;53168;51.146;17.120;2023-07-20T03:49:44;4.31;;;4.31;;
66371;SDS011;53168;51.146;17.120;2023-07-20T03:52:14;4.92;;;4.92;;
66371;SDS011;53168;51.146;17.120;2023-07-20T03:54:44;4.39;;;4.39;;
66371;SDS011;53168;51.146;17.120;2023-07-20T03:57:13;4.35;;;4.35;;
66371;SDS011;53168;51.146;17.120;2023-07-20T03:59:45;4.74;;;4.74;;
66371;SDS011;53168;51.146;17.120;2023-07-20T04:02:15;4.48;;;4.48;;
66371;SDS011;53168;51.146;17.120;2023-07-20T04:04:46;5.01;;;5.01;;
66371;SDS011;53168;51.146;17.120;2023-07-20T04:07:15;4.89;;;4.89;;
66371;SDS011;53168;51.146;17.120;2023-07-20T04:09:45;4.54;;;4.52;;
66371;SDS011;53168;51.146;17.120;2023-07-20T04:12:17;4.98;;;4.98;;
66371;SDS011;53168;51.146;17.120;2023-07-20T04:14:46;5.00;;;5.00;;
66371;SDS011;53168;51.146;17.120;2023-07-20T04:17:16;5.19;;;5.19;;
66371;SDS011;53168;51.146;17.120;2023-07-20T04:19:48;4.86;;;4.86;;
66371;SDS011;53168;51.146;17.120;2023-07-20T04:22:36;4.82;;;4.82;;
66371;SDS011;53168;51.146;17.120;2023-07-20T04:25:08;4.92;;;4.92;;
66371;SDS011;53168;51.146;17.120;2023-07-20T04:27:38;4.89;;;4.89;;
66371;SDS011;53168;51.146;17.120;2023-07-20T04:30:10;5.05;;;5.05;;
66371;SDS011;53168;51.146;17.120;2023-07-20T04:32:43;4.92;;;4.92;;
66371;SDS011;53168;51.146;17.120;2023-07-20T04:35:17;4.62;;;4.62;;
66371;SDS011;53168;51.146;17.120;2023-07-20T04:38:17;4.76;;;4.76;;
66371;SDS011;53168;51.146;17.120;2023-07-20T04:40:58;5.05;;;5.05;;
66371;SDS011;53168;51.146;17.120;2023-07-20T04:43:30;5.72;;;5.72;;
66371;SDS011;53168;51.146;17.120;2023-07-20T04:46:00;5.49;;;5.49;;
66371;SDS011;53168;51.146;17.120;2023-07-20T04:48:33;5.59;;;5.59;;
66371;SDS011;53168;51.146;17.120;2023-07-20T04:51:03;5.64;;;5.64;;
66371;SDS011;53168;51.146;17.120;2023-07-20T04:53:33;4.96;;;4.96;;
66371;SDS011;53168;51.146;17.120;2023-07-20T04:56:03;5.46;;;5.46;;
66371;SDS011;53168;51.146;17.120;2023-07-20T04:58:36;5.60;;;5.60;;
66371;SDS011;53168;51.146;17.120;2023-07-20T05:01:06;5.30;;;5.30;;
66371;SDS011;53168;51.146;17.120;2023-07-20T05:03:39;5.46;;;5.46;;
66371;SDS011;53168;51.146;17.120;2023-07-20T05:06:10;5.18;;;5.18;;
66371;SDS011;53168;51.146;17.120;2023-07-20T05:08:40;5.15;;;5.15;;
66371;SDS011;53168;51.146;17.120;2023-07-20T05:11:10;5.30;;;5.30;;
66371;SDS011;53168;51.146;17.120;2023-07-20T05:13:40;5.26;;;5.26;;
66371;SDS011;53168;51.146;17.120;2023-07-20T05:16:12;5.88;;;5.88;;
66371;SDS011;53168;51.146;17.120;2023-07-20T05:18:42;6.04;;;6.04;;
66371;SDS011;53168;51.146;17.120;2023-07-20T05:21:13;6.07;;;6.07;;
66371;SDS011;53168;51.146;17.120;2023-07-20T05:23:43;5.52;;;5.52;;
66371;SDS011;53168;51.146;17.120;2023-07-20T05:26:14;5.65;;;5.65;;
66371;SDS011;53168;51.146;17.120;2023-07-20T05:28:44;5.11;;;5.11;;
66371;SDS011;53168;51.146;17.120;2023-07-20T05:31:14;5.70;;;5.70;;
66371;SDS011;53168;51.146;17.120;2023-07-20T05:33:43;5.28;;;5.27;;
66371;SDS011;53168;51.146;17.120;2023-07-20T05:36:13;5.46;;;5.46;;
66371;SDS011;53168;51.146;17.120;2023-07-20T05:38:46;5.33;;;5.33;;
66371;SDS011;53168;51.146;17.120;2023-07-20T05:41:16;5.52;;;5.52;;
66371;SDS011;53168;51.146;17.120;2023-07-20T05:43:46;6.23;;;6.23;;
66371;SDS011;53168;51.146;17.120;2023-07-20T05:46:16;6.68;;;6.68;;
66371;SDS011;53168;51.146;17.120;2023-07-20T05:48:48;6.71;;;6.71;;
66371;SDS011;53168;51.146;17.120;2023-07-20T05:51:18;5.96;;;5.96;;
66371;SDS011;53168;51.146;17.120;2023-07-20T05:53:48;6.25;;;6.25;;
66371;SDS011;53168;51.146;17.120;2023-07-20T05:56:18;6.80;;;6.80;;
66371;SDS011;53168;51.146;17.120;2023-07-20T05:58:48;6.84;;;6.84;;
66371;SDS011;53168;51.146;17.120;2023-07-20T06:01:18;6.86;;;6.86;;
66371;SDS011;53168;51.146;17.120;2023-07-20T06:03:48;6.04;;;6.04;;
66371;SDS011;53168;51.146;17.120;2023-07-20T06:06:18;6.44;;;6.44;;
66371;SDS011;53168;51.146;17.120;2023-07-20T06:08:48;6.45;;;6.45;;
66371;SDS011;53168;51.146;17.120;2023-07-20T06:11:18;6.58;;;6.58;;
66371;SDS011;53168;51.146;17.120;2023-07-20T06:16:43;6.97;;;6.97;;
66371;SDS011;53168;51.146;17.120;2023-07-20T06:19:13;7.09;;;7.09;;
66371;SDS011;53168;51.146;17.120;2023-07-20T06:21:44;8.11;;;8.11;;
66371;SDS011;53168;51.146;17.120;2023-07-20T06:27:50;6.29;;;6.29;;
66371;SDS011;53168;51.146;17.120;2023-07-20T06:31:01;6.53;;;6.53;;
66371;SDS011;53168;51.146;17.120;2023-07-20T06:34:05;7.32;;;7.32;;
66371;SDS011;53168;51.146;17.120;2023-07-20T06:36:41;7.00;;;7.00;;
66371;SDS011;53168;51.146;17.120;2023-07-20T06:39:12;7.40;;;7.40;;
66371;SDS011;53168;51.146;17.120;2023-07-20T06:41:48;6.81;;;6.81;;
66371;SDS011;53168;51.146;17.120;2023-07-20T07:39:33;5.36;;;5.36;;
66371;SDS011;53168;51.146;17.120;2023-07-20T07:42:07;5.70;;;5.70;;
66371;SDS011;53168;51.146;17.120;2023-07-20T07:45:05;5.63;;;5.63;;
66371;SDS011;53168;51.146;17.120;2023-07-20T07:47:48;6.32;;;6.32;;
66371;SDS011;53168;51.146;17.120;2023-07-20T07:50:24;6.21;;;6.21;;
66371;SDS011;53168;51.146;17.120;2023-07-20T07:53:14;6.03;;;6.03;;
66371;SDS011;53168;51.146;17.120;2023-07-20T07:55:55;5.71;;;5.71;;
66371;SDS011;53168;51.146;17.120;2023-07-20T07:58:36;5.62;;;5.62;;
66371;SDS011;53168;51.146;17.120;2023-07-20T08:01:26;5.84;;;5.84;;
66371;SDS011;53168;51.146;17.120;2023-07-20T08:04:13;5.96;;;5.96;;
66371;SDS011;53168;51.146;17.120;2023-07-20T08:07:30;5.57;;;5.57;;
66371;SDS011;53168;51.146;17.120;2023-07-20T08:10:34;5.89;;;5.89;;
66371;SDS011;53168;51.146;17.120;2023-07-20T08:13:24;5.83;;;5.83;;
66371;SDS011;53168;51.146;17.120;2023-07-20T08:16:18;5.44;;;5.44;;
66371;SDS011;53168;51.146;17.120;2023-07-20T08:19:18;5.43;;;5.43;;
66371;SDS011;53168;51.146;17.120;2023-07-20T08:22:09;5.18;;;5.18;;
66371;SDS011;53168;51.146;17.120;2023-07-20T08:28:13;5.46;;;5.46;;
66371;SDS011;53168;51.146;17.120;2023-07-20T08:31:40;6.24;;;6.24;;
66371;SDS011;53168;51.146;17.120;2023-07-20T08:35:43;5.23;;;5.23;;
66371;SDS011;53168;51.146;17.120;2023-07-20T08:38:30;4.95;;;4.95;;
66371;SDS011;53168;51.146;17.120;2023-07-20T08:41:40;4.66;;;4.66;;
66371;SDS011;53168;51.146;17.120;2023-07-20T08:44:41;3.90;;;3.90;;
66371;SDS011;53168;51.146;17.120;2023-07-20T08:47:32;3.61;;;3.61;;
66371;SDS011;53168;51.146;17.120;2023-07-20T08:50:21;3.58;;;3.58;;
66371;SDS011;53168;51.146;17.120;2023-07-20T08:53:45;3.95;;;3.95;;
66371;SDS011;53168;51.146;17.120;2023-07-20T08:57:05;3.58;;;3.58;;
66371;SDS011;53168;51.146;17.120;2023-07-20T09:00:27;3.77;;;3.77;;
66371;SDS011;53168;51.146;17.120;2023-07-20T09:03:45;3.84;;;3.84;;
66371;SDS011;53168;51.146;17.120;2023-07-20T09:06:29;3.87;;;3.87;;
66371;SDS011;53168;51.146;17.120;2023-07-20T09:09:26;3.01;;;3.01;;
66371;SDS011;53168;51.146;17.120;2023-07-20T09:12:16;3.92;;;3.92;;
66371;SDS011;53168;51.146;17.120;2023-07-20T09:15:13;3.69;;;3.69;;
66371;SDS011;53168;51.146;17.120;2023-07-20T09:24:34;3.64;;;3.64;;
66371;SDS011;53168;51.146;17.120;2023-07-20T09:27:44;3.27;;;3.27;;
66371;SDS011;53168;51.146;17.120;2023-07-20T09:30:44;3.72;;;3.72;;
66371;SDS011;53168;51.146;17.120;2023-07-20T09:38:09;3.41;;;3.41;;
66371;SDS011;53168;51.146;17.120;2023-07-20T09:41:29;3.26;;;3.26;;
66371;SDS011;53168;51.146;17.120;2023-07-20T09:45:20;3.57;;;3.57;;
66371;SDS011;53168;51.146;17.120;2023-07-20T09:48:05;3.15;;;3.15;;
66371;SDS011;53168;51.146;17.120;2023-07-20T09:50:48;3.15;;;3.15;;
66371;SDS011;53168;51.146;17.120;2023-07-20T09:53:24;2.84;;;2.84;;
66371;SDS011;53168;51.146;17.120;2023-07-20T09:56:00;3.03;;;3.03;;
66371;SDS011;53168;51.146;17.120;2023-07-20T10:49:19;2.08;;;2.08;;
66371;SDS011;53168;51.146;17.120;2023-07-20T10:52:05;2.35;;;2.35;;
66371;SDS011;53168;51.146;17.120;2023-07-20T10:58:17;2.34;;;2.34;;
66371;SDS011;53168;51.146;17.120;2023-07-20T11:01:01;2.22;;;2.22;;
66371;SDS011;53168;51.146;17.120;2023-07-20T11:03:41;1.97;;;1.97;;
66371;SDS011;53168;51.146;17.120;2023-07-20T11:06:43;1.72;;;1.72;;
66371;SDS011;53168;51.146;17.120;2023-07-20T11:09:36;2.05;;;2.05;;
66371;SDS011;53168;51.146;17.120;2023-07-20T11:12:25;2.17;;;2.17;;
66371;SDS011;53168;51.146;17.120;2023-07-20T11:15:07;1.99;;;1.99;;
66371;SDS011;53168;51.146;17.120;2023-07-20T11:17:51;1.81;;;1.81;;
66371;SDS011;53168;51.146;17.120;2023-07-20T11:20:49;1.98;;;1.98;;
66371;SDS011;53168;51.146;17.120;2023-07-20T11:23:25;1.87;;;1.87;;
66371;SDS011;53168;51.146;17.120;2023-07-20T11:26:02;1.84;;;1.84;;
66371;SDS011;53168;51.146;17.120;2023-07-20T11:28:41;1.95;;;1.95;;
66371;SDS011;53168;51.146;17.120;2023-07-20T11:34:26;2.05;;;2.05;;
66371;SDS011;53168;51.146;17.120;2023-07-20T11:37:12;2.07;;;2.07;;
66371;SDS011;53168;51.146;17.120;2023-07-20T11:39:56;1.36;;;1.36;;
66371;SDS011;53168;51.146;17.120;2023-07-20T11:42:37;1.53;;;1.53;;
66371;SDS011;53168;51.146;17.120;2023-07-20T11:45:31;2.05;;;2.05;;
66371;SDS011;53168;51.146;17.120;2023-07-20T11:48:19;2.35;;;2.35;;
66371;SDS011;53168;51.146;17.120;2023-07-20T12:17:04;4.15;;;4.15;;
66371;SDS011;53168;51.146;17.120;2023-07-20T12:20:06;3.99;;;3.99;;
66371;SDS011;53168;51.146;17.120;2023-07-20T12:22:44;4.03;;;4.03;;
66371;SDS011;53168;51.146;17.120;2023-07-20T12:25:33;4.02;;;4.02;;
66371;SDS011;53168;51.146;17.120;2023-07-20T12:32:03;4.58;;;4.58;;
66371;SDS011;53168;51.146;17.120;2023-07-20T12:34:43;4.47;;;4.47;;
66371;SDS011;53168;51.146;17.120;2023-07-20T12:37:14;4.11;;;4.11;;
66371;SDS011;53168;51.146;17.120;2023-07-20T12:39:51;3.78;;;3.78;;
66371;SDS011;53168;51.146;17.120;2023-07-20T12:42:29;3.82;;;3.82;;
66371;SDS011;53168;51.146;17.120;2023-07-20T12:45:24;3.63;;;3.63;;
66371;SDS011;53168;51.146;17.120;2023-07-20T12:48:02;3.47;;;3.47;;
66371;SDS011;53168;51.146;17.120;2023-07-20T12:50:51;3.07;;;3.07;;
66371;SDS011;53168;51.146;17.120;2023-07-20T13:12:38;2.95;;;2.95;;
66371;SDS011;53168;51.146;17.120;2023-07-20T13:18:37;2.61;;;2.61;;
66371;SDS011;53168;51.146;17.120;2023-07-20T13:24:15;2.12;;;2.12;;
66371;SDS011;53168;51.146;17.120;2023-07-20T13:27:03;2.31;;;2.31;;
66371;SDS011;53168;51.146;17.120;2023-07-20T13:29:37;2.44;;;2.44;;
66371;SDS011;53168;51.146;17.120;2023-07-20T13:46:39;2.60;;;2.60;;
66371;SDS011;53168;51.146;17.120;2023-07-20T13:49:19;2.28;;;2.28;;
66371;SDS011;53168;51.146;17.120;2023-07-20T13:55:18;1.97;;;1.97;;
66371;SDS011;53168;51.146;17.120;2023-07-20T13:58:21;2.16;;;2.16;;
66371;SDS011;53168;51.146;17.120;2023-07-20T14:04:13;1.89;;;1.89;;
66371;SDS011;53168;51.146;17.120;2023-07-20T14:06:44;1.84;;;1.84;;
66371;SDS011;53168;51.146;17.120;2023-07-20T14:09:28;1.81;;;1.81;;
66371;SDS011;53168;51.146;17.120;2023-07-20T14:14:57;1.77;;;1.77;;
66371;SDS011;53168;51.146;17.120;2023-07-20T14:17:44;1.78;;;1.78;;
66371;SDS011;53168;51.146;17.120;2023-07-20T14:20:22;2.27;;;2.27;;
66371;SDS011;53168;51.146;17.120;2023-07-20T14:22:52;1.91;;;1.91;;
66371;SDS011;53168;51.146;17.120;2023-07-20T14:25:22;1.98;;;1.98;;
66371;SDS011;53168;51.146;17.120;2023-07-20T14:27:52;2.28;;;2.28;;
66371;SDS011;53168;51.146;17.120;2023-07-20T14:30:23;2.40;;;2.40;;
66371;SDS011;53168;51.146;17.120;2023-07-20T14:32:53;2.14;;;2.14;;
66371;SDS011;53168;51.146;17.120;2023-07-20T14:35:23;2.44;;;2.44;;
66371;SDS011;53168;51.146;17.120;2023-07-20T14:37:54;2.30;;;2.30;;
66371;SDS011;53168;51.146;17.120;2023-07-20T14:40:53;2.49;;;2.49;;
66371;SDS011;53168;51.146;17.120;2023-07-20T14:43:23;2.49;;;2.49;;
66371;SDS011;53168;51.146;17.120;2023-07-20T14:45:54;2.37;;;2.37;;
66371;SDS011;53168;51.146;17.120;2023-07-20T14:48:24;2.38;;;2.38;;
66371;SDS011;53168;51.146;17.120;2023-07-20T14:50:54;2.55;;;2.55;;
66371;SDS011;53168;51.146;17.120;2023-07-20T14:53:37;2.25;;;2.25;;
66371;SDS011;53168;51.146;17.120;2023-07-20T14:56:21;2.56;;;2.56;;
66371;SDS011;53168;51.146;17.120;2023-07-20T14:58:52;2.49;;;2.49;;
66371;SDS011;53168;51.146;17.120;2023-07-20T15:01:33;2.76;;;2.76;;
66371;SDS011;53168;51.146;17.120;2023-07-20T15:04:07;2.33;;;2.33;;
66371;SDS011;53168;51.146;17.120;2023-07-20T15:06:38;2.70;;;2.70;;
66371;SDS011;53168;51.146;17.120;2023-07-20T15:09:18;2.58;;;2.58;;
66371;SDS011;53168;51.146;17.120;2023-07-20T15:11:49;2.70;;;2.70;;
66371;SDS011;53168;51.146;17.120;2023-07-20T15:36:57;2.17;;;2.17;;
66371;SDS011;53168;51.146;17.120;2023-07-20T15:39:32;2.42;;;2.42;;
66371;SDS011;53168;51.146;17.120;2023-07-20T15:42:07;2.49;;;2.49;;
66371;SDS011;53168;51.146;17.120;2023-07-20T15:44:44;2.18;;;2.18;;
66371;SDS011;53168;51.146;17.120;2023-07-20T15:47:20;1.74;;;1.74;;
66371;SDS011;53168;51.146;17.120;2023-07-20T15:49:57;1.73;;;1.73;;
66371;SDS011;53168;51.146;17.120;2023-07-20T15:52:31;1.59;;;1.59;;
66371;SDS011;53168;51.146;17.120;2023-07-20T15:55:10;1.86;;;1.86;;
66371;SDS011;53168;51.146;17.120;2023-07-20T15:57:47;1.85;;;1.85;;
66371;SDS011;53168;51.146;17.120;2023-07-20T16:00:23;1.98;;;1.98;;
66371;SDS011;53168;51.146;17.120;2023-07-20T16:10:04;1.74;;;1.74;;
66371;SDS011;53168;51.146;17.120;2023-07-20T16:12:43;1.63;;;1.63;;
66371;SDS011;53168;51.146;17.120;2023-07-20T16:15:22;1.49;;;1.49;;
66371;SDS011;53168;51.146;17.120;2023-07-20T16:18:01;1.82;;;1.82;;
66371;SDS011;53168;51.146;17.120;2023-07-20T16:20:39;1.87;;;1.87;;
66371;SDS011;53168;51.146;17.120;2023-07-20T16:23:19;1.89;;;1.89;;
66371;SDS011;53168;51.146;17.120;2023-07-20T16:25:56;1.49;;;1.49;;
66371;SDS011;53168;51.146;17.120;2023-07-20T16:28:34;1.64;;;1.64;;
66371;SDS011;53168;51.146;17.120;2023-07-20T16:31:11;1.51;;;1.51;;
66371;SDS011;53168;51.146;17.120;2023-07-20T16:34:04;2.04;;;2.04;;
66371;SDS011;53168;51.146;17.120;2023-07-20T16:36:46;2.01;;;2.01;;
66371;SDS011;53168;51.146;17.120;2023-07-20T16:39:43;1.79;;;1.79;;
66371;SDS011;53168;51.146;17.120;2023-07-20T16:42:35;2.32;;;2.32;;
66371;SDS011;53168;51.146;17.120;2023-07-20T16:45:49;2.13;;;2.13;;
66371;SDS011;53168;51.146;17.120;2023-07-20T16:49:14;1.94;;;1.94;;
66371;SDS011;53168;51.146;17.120;2023-07-20T16:51:48;2.04;;;2.04;;
66371;SDS011;53168;51.146;17.120;2023-07-20T16:54:30;2.04;;;2.04;;
66371;SDS011;53168;51.146;17.120;2023-07-20T16:57:07;1.92;;;1.92;;
66371;SDS011;53168;51.146;17.120;2023-07-20T16:59:46;2.04;;;2.04;;
66371;SDS011;53168;51.146;17.120;2023-07-20T17:02:23;2.18;;;2.18;;
66371;SDS011;53168;51.146;17.120;2023-07-20T17:04:59;2.15;;;2.15;;
66371;SDS011;53168;51.146;17.120;2023-07-20T17:45:58;2.23;;;2.23;;
66371;SDS011;53168;51.146;17.120;2023-07-20T17:48:32;2.35;;;2.35;;
66371;SDS011;53168;51.146;17.120;2023-07-20T17:51:19;2.36;;;2.36;;
66371;SDS011;53168;51.146;17.120;2023-07-20T17:53:57;2.37;;;2.37;;
66371;SDS011;53168;51.146;17.120;2023-07-20T17:56:27;2.26;;;2.26;;
66371;SDS011;53168;51.146;17.120;2023-07-20T17:59:00;2.32;;;2.32;;
66371;SDS011;53168;51.146;17.120;2023-07-20T18:01:30;2.21;;;2.21;;
66371;SDS011;53168;51.146;17.120;2023-07-20T18:04:01;2.24;;;2.24;;
66371;SDS011;53168;51.146;17.120;2023-07-20T18:06:36;2.05;;;2.05;;
66371;SDS011;53168;51.146;17.120;2023-07-20T18:09:07;2.10;;;2.10;;
66371;SDS011;53168;51.146;17.120;2023-07-20T18:11:38;2.13;;;2.13;;
66371;SDS011;53168;51.146;17.120;2023-07-20T18:14:10;2.43;;;2.43;;
66371;SDS011;53168;51.146;17.120;2023-07-20T18:16:42;2.40;;;2.40;;
66371;SDS011;53168;51.146;17.120;2023-07-20T18:19:19;2.31;;;2.31;;
66371;SDS011;53168;51.146;17.120;2023-07-20T18:21:55;1.99;;;1.99;;
66371;SDS011;53168;51.146;17.120;2023-07-20T19:37:32;2.87;;;2.87;;
66371;SDS011;53168;51.146;17.120;2023-07-20T19:40:03;2.70;;;2.70;;
66371;SDS011;53168;51.146;17.120;2023-07-20T19:42:36;3.29;;;3.29;;
66371;SDS011;53168;51.146;17.120;2023-07-20T19:45:07;2.92;;;2.92;;
66371;SDS011;53168;51.146;17.120;2023-07-20T19:47:37;2.63;;;2.63;;
66371;SDS011;53168;51.146;17.120;2023-07-20T19:50:10;2.90;;;2.90;;
66371;SDS011;53168;51.146;17.120;2023-07-20T19:52:40;2.90;;;2.90;;
66371;SDS011;53168;51.146;17.120;2023-07-20T19:55:30;3.20;;;3.20;;
66371;SDS011;53168;51.146;17.120;2023-07-20T19:58:01;2.96;;;2.96;;
66371;SDS011;53168;51.146;17.120;2023-07-20T20:00:30;3.07;;;3.07;;
66371;SDS011;53168;51.146;17.120;2023-07-20T20:03:03;3.02;;;3.02;;
66371;SDS011;53168;51.146;17.120;2023-07-20T20:05:35;2.86;;;2.86;;
66371;SDS011;53168;51.146;17.120;2023-07-20T20:08:06;3.37;;;3.37;;
66371;SDS011;53168;51.146;17.120;2023-07-20T20:10:36;3.29;;;3.29;;
66371;SDS011;53168;51.146;17.120;2023-07-20T20:13:09;2.96;;;2.96;;
66371;SDS011;53168;51.146;17.120;2023-07-20T20:15:42;2.97;;;2.97;;
66371;SDS011;53168;51.146;17.120;2023-07-20T20:18:12;3.02;;;3.02;;
66371;SDS011;53168;51.146;17.120;2023-07-20T20:20:44;3.34;;;3.34;;
66371;SDS011;53168;51.146;17.120;2023-07-20T20:23:17;3.07;;;3.07;;
66371;SDS011;53168;51.146;17.120;2023-07-20T20:25:48;2.68;;;2.68;;
66371;SDS011;53168;51.146;17.120;2023-07-20T20:28:18;2.79;;;2.79;;
66371;SDS011;53168;51.146;17.120;2023-07-20T20:30:50;3.15;;;3.15;;
66371;SDS011;53168;51.146;17.120;2023-07-20T20:33:22;2.97;;;2.97;;
66371;SDS011;53168;51.146;17.120;2023-07-20T20:35:53;3.33;;;3.33;;
66371;SDS011;53168;51.146;17.120;2023-07-20T20:38:27;3.09;;;3.09;;
66371;SDS011;53168;51.146;17.120;2023-07-20T20:40:57;3.33;;;3.33;;
66371;SDS011;53168;51.146;17.120;2023-07-20T20:43:29;3.41;;;3.41;;
66371;SDS011;53168;51.146;17.120;2023-07-20T20:46:02;3.21;;;3.21;;
66371;SDS011;53168;51.146;17.120;2023-07-20T20:48:46;3.19;;;3.19;;
66371;SDS011;53168;51.146;17.120;2023-07-20T20:51:16;3.24;;;3.24;;
66371;SDS011;53168;51.146;17.120;2023-07-20T20:53:46;3.53;;;3.53;;
66371;SDS011;53168;51.146;17.120;2023-07-20T20:56:16;3.40;;;3.40;;
66371;SDS011;53168;51.146;17.120;2023-07-20T20:58:47;3.35;;;3.35;;
66371;SDS011;53168;51.146;17.120;2023-07-20T21:01:18;3.08;;;3.08;;
66371;SDS011;53168;51.146;17.120;2023-07-20T21:03:49;3.22;;;3.22;;
66371;SDS011;53168;51.146;17.120;2023-07-20T21:06:19;3.17;;;3.17;;
66371;SDS011;53168;51.146;17.120;2023-07-20T21:08:50;3.18;;;3.18;;
66371;SDS011;53168;51.146;17.120;2023-07-20T21:11:20;3.15;;;3.15;;
66371;SDS011;53168;51.146;17.120;2023-07-20T21:13:50;2.82;;;2.82;;
66371;SDS011;53168;51.146;17.120;2023-07-20T21:16:20;2.75;;;2.75;;
66371;SDS011;53168;51.146;17.120;2023-07-20T21:18:50;2.75;;;2.75;;
66371;SDS011;53168;51.146;17.120;2023-07-20T21:21:20;3.11;;;3.11;;
66371;SDS011;53168;51.146;17.120;2023-07-20T21:23:50;3.18;;;3.18;;
66371;SDS011;53168;51.146;17.120;2023-07-20T21:26:20;3.09;;;3.09;;
66371;SDS011;53168;51.146;17.120;2023-07-20T21:29:00;3.21;;;3.21;;
66371;SDS011;53168;51.146;17.120;2023-07-20T21:31:34;3.00;;;3.00;;
66371;SDS011;53168;51.146;17.120;2023-07-20T21:34:04;3.52;;;3.52;;
66371;SDS011;53168;51.146;17.120;2023-07-20T21:36:35;4.17;;;4.17;;
66371;SDS011;53168;51.146;17.120;2023-07-20T21:39:06;4.12;;;4.12;;